Time;durP1;ratioP1;P1;durP2;ratioP2;P2;SDS_P1;SDS_P2;PMS_P1;PMS_P2;Temp;Humidity;BMP_temperature;BMP_pressure;BME280_temperature;BME280_humidity;BME280_pressure;Samples;Min_cycle;Max_cycle;Signal;HPM_P1;HPM_P2
2021/08/30 00:02:22;;;;;;;5.30;3.70;;;;;;;;;;5048169;28;20441;-59
2021/08/30 00:04:48;;;;;;;7.50;4.07;;;;;;;;;;5050356;28;20021;-59
2021/08/30 00:07:13;;;;;;;6.20;3.92;;;;;;;;;;5048314;28;20021;-59
2021/08/30 00:09:40;;;;;;;5.55;4.10;;;;;;;;;;5049627;28;20479;-59
2021/08/30 00:12:06;;;;;;;8.32;5.10;;;;;;;;;;5049262;28;20021;-59
2021/08/30 00:14:32;;;;;;;6.50;4.57;;;;;;;;;;5049051;28;20033;-60
2021/08/30 00:16:58;;;;;;;7.03;4.50;;;;;;;;;;5049723;28;20032;-59
2021/08/30 00:19:24;;;;;;;7.95;4.53;;;;;;;;;;5047529;28;20029;-59
2021/08/30 00:21:50;;;;;;;8.23;4.38;;;;;;;;;;5049733;28;20495;-60
2021/08/30 00:24:21;;;;;;;6.75;4.60;;;;;;;;;;5048706;28;20021;-60
2021/08/30 00:26:47;;;;;;;6.90;4.43;;;;;;;;;;5049012;28;20029;-59
2021/08/30 00:29:12;;;;;;;7.13;4.50;;;;;;;;;;5052180;28;20037;-59
2021/08/30 00:31:38;;;;;;;5.90;4.13;;;;;;;;;;5049751;28;20111;-60
2021/08/30 00:34:03;;;;;;;8.90;5.25;;;;;;;;;;5069613;28;20029;-59
2021/08/30 00:36:29;;;;;;;7.80;5.00;;;;;;;;;;5048290;28;20021;-59
2021/08/30 00:38:55;;;;;;;7.53;4.70;;;;;;;;;;5048027;28;20029;-59
2021/08/30 00:41:21;;;;;;;8.35;5.20;;;;;;;;;;5050585;28;20024;-59
2021/08/30 00:43:46;;;;;;;8.27;5.10;;;;;;;;;;5048747;28;20036;-60
2021/08/30 00:46:16;;;;;;;9.35;4.68;;;;;;;;;;5048734;28;20120;-59
2021/08/30 00:48:46;;;;;;;10.45;5.00;;;;;;;;;;5048060;28;20033;-59
2021/08/30 00:51:13;;;;;;;;;;;;;;;;;;5048985;28;20412;-59
2021/08/30 00:53:38;;;;;;;8.68;5.30;;;;;;;;;;5047212;28;19916;-59
2021/08/30 00:56:05;;;;;;;8.15;5.32;;;;;;;;;;5049194;28;20039;-59
2021/08/30 00:58:30;;;;;;;9.98;5.53;;;;;;;;;;5047732;28;20519;-60
2021/08/30 01:00:55;;;;;;;10.27;5.45;;;;;;;;;;5046917;28;20098;-59
2021/08/30 01:03:21;;;;;;;9.18;5.43;;;;;;;;;;5047849;28;20488;-60
2021/08/30 01:05:51;;;;;;;9.13;4.97;;;;;;;;;;5050252;28;20033;-59
2021/08/30 01:08:31;;;;;;;8.63;5.30;;;;;;;;;;5047125;28;20111;-60
2021/08/30 01:11:12;;;;;;;10.85;5.93;;;;;;;;;;5044528;28;20025;-60
2021/08/30 01:13:59;;;;;;;9.70;5.43;;;;;;;;;;5048730;28;20124;-60
2021/08/30 01:16:27;;;;;;;9.35;5.82;;;;;;;;;;5048513;28;20021;-60
2021/08/30 01:18:54;;;;;;;9.70;5.13;;;;;;;;;;5048518;28;20040;-59
2021/08/30 01:21:23;;;;;;;8.13;5.22;;;;;;;;;;5047576;28;20037;-60
2021/08/30 01:24:05;;;;;;;8.52;5.28;;;;;;;;;;5049554;28;20016;-59
2021/08/30 01:27:02;;;;;;;10.10;5.45;;;;;;;;;;5050594;28;20119;-59
2021/08/30 01:29:46;;;;;;;8.35;5.13;;;;;;;;;;5043835;28;20045;-59
2021/08/30 01:32:31;;;;;;;7.82;4.85;;;;;;;;;;5048726;28;20029;-59
2021/08/30 01:35:00;;;;;;;9.10;5.00;;;;;;;;;;5044354;28;20088;-59
2021/08/30 01:37:27;;;;;;;11.07;5.80;;;;;;;;;;5047201;28;20045;-59
2021/08/30 01:39:53;;;;;;;15.40;5.68;;;;;;;;;;5049543;28;20029;-59
2021/08/30 01:42:19;;;;;;;7.80;4.93;;;;;;;;;;5046078;28;20024;-59
2021/08/30 01:44:45;;;;;;;8.32;5.10;;;;;;;;;;5051688;28;20025;-59
2021/08/30 01:47:11;;;;;;;7.28;4.32;;;;;;;;;;5046515;28;20029;-59
2021/08/30 01:49:37;;;;;;;6.90;4.78;;;;;;;;;;5043825;28;20082;-59
2021/08/30 01:52:02;;;;;;;7.38;4.47;;;;;;;;;;5048307;28;20025;-58
2021/08/30 01:54:28;;;;;;;7.43;4.78;;;;;;;;;;5047747;28;20040;-59
2021/08/30 01:56:56;;;;;;;7.65;4.65;;;;;;;;;;5047335;28;20473;-58
2021/08/30 02:02:08;;;;;;;7.22;4.65;;;;;;;;;;5047656;28;21447;-58
2021/08/30 02:04:38;;;;;;;7.55;4.47;;;;;;;;;;5046108;28;20488;-59
2021/08/30 02:07:04;;;;;;;;;;;;;;;;;;5049488;28;20032;-58
2021/08/30 02:09:30;;;;;;;5.30;3.83;;;;;;;;;;5048149;28;20479;-59
2021/08/30 02:11:56;;;;;;;6.25;4.32;;;;;;;;;;5047892;28;20025;-59
2021/08/30 02:14:22;;;;;;;9.07;5.15;;;;;;;;;;5049393;28;20688;-59
2021/08/30 02:16:52;;;;;;;7.55;4.57;;;;;;;;;;5063635;28;20029;-59
2021/08/30 02:19:39;;;;;;;6.47;4.15;;;;;;;;;;5046536;28;20032;-59
2021/08/30 02:22:29;;;;;;;8.20;4.82;;;;;;;;;;5045924;28;20081;-59
2021/08/30 02:25:06;;;;;;;8.35;4.90;;;;;;;;;;5045873;28;20036;-59
2021/08/30 02:27:53;;;;;;;7.75;5.07;;;;;;;;;;5045025;28;20064;-59
2021/08/30 02:30:25;;;;;;;10.60;4.95;;;;;;;;;;5044059;28;20036;-59
2021/08/30 02:32:52;;;;;;;7.63;4.18;;;;;;;;;;5048044;28;20545;-59
2021/08/30 02:35:22;;;;;;;7.53;4.70;;;;;;;;;;5048407;28;20024;-59
2021/08/30 02:37:49;;;;;;;;;;;;;;;;;;5046528;28;20086;-58
2021/08/30 02:40:16;;;;;;;7.63;4.80;;;;;;;;;;5047259;28;19923;-58
2021/08/30 02:42:42;;;;;;;8.10;5.30;;;;;;;;;;5062285;28;20426;-59
2021/08/30 02:45:09;;;;;;;7.78;5.28;;;;;;;;;;5063180;28;20023;-59
2021/08/30 02:47:36;;;;;;;8.02;5.00;;;;;;;;;;5047003;28;20041;-59
2021/08/30 02:50:03;;;;;;;8.60;5.28;;;;;;;;;;5051349;28;20024;-58
2021/08/30 02:52:30;;;;;;;8.27;5.10;;;;;;;;;;5044165;28;20036;-58
2021/08/30 02:54:56;;;;;;;10.05;5.30;;;;;;;;;;5046523;28;20103;-59
2021/08/30 02:57:23;;;;;;;8.60;5.10;;;;;;;;;;5047044;28;20484;-59
2021/08/30 02:59:51;;;;;;;9.30;5.88;;;;;;;;;;5048161;28;20117;-58
2021/08/30 03:02:20;;;;;;;7.85;5.03;;;;;;;;;;5049791;28;20122;-59
2021/08/30 03:04:46;;;;;;;8.35;4.45;;;;;;;;;;5049285;28;20029;-60
2021/08/30 03:07:12;;;;;;;6.85;4.15;;;;;;;;;;5050315;28;20033;-60
2021/08/30 03:09:38;;;;;;;6.63;4.53;;;;;;;;;;5052918;28;20033;-59
2021/08/30 03:12:04;;;;;;;8.80;5.28;;;;;;;;;;5051550;28;20486;-59
2021/08/30 03:14:31;;;;;;;8.13;5.10;;;;;;;;;;5052242;28;20033;-59
2021/08/30 03:17:00;;;;;;;6.65;4.57;;;;;;;;;;5050542;28;20365;-59
2021/08/30 03:19:27;;;;;;;6.80;4.97;;;;;;;;;;5048658;28;20033;-59
2021/08/30 03:21:53;;;;;;;6.70;4.40;;;;;;;;;;5045068;28;20048;-59
2021/08/30 03:24:20;;;;;;;8.32;5.32;;;;;;;;;;5052546;28;20017;-59
2021/08/30 03:26:47;;;;;;;8.27;4.95;;;;;;;;;;5053962;28;20043;-60
2021/08/30 03:29:14;;;;;;;7.75;4.68;;;;;;;;;;5049416;28;20399;-60
2021/08/30 03:31:40;;;;;;;7.18;4.75;;;;;;;;;;5049185;28;20476;-59
2021/08/30 03:34:06;;;;;;;9.35;5.93;;;;;;;;;;5054572;28;20025;-59
2021/08/30 03:36:33;;;;;;;8.60;5.40;;;;;;;;;;5053130;28;20063;-59
2021/08/30 03:38:59;;;;;;;8.50;5.32;;;;;;;;;;5049655;28;20074;-60
2021/08/30 03:41:26;;;;;;;8.63;4.82;;;;;;;;;;5050458;28;20040;-59
2021/08/30 03:43:53;;;;;;;8.25;5.05;;;;;;;;;;5049518;28;20057;-60
2021/08/30 03:46:20;;;;;;;7.47;4.57;;;;;;;;;;5051092;28;20499;-60
2021/08/30 03:48:45;;;;;;;7.00;4.65;;;;;;;;;;5047955;28;20120;-59
2021/08/30 03:51:11;;;;;;;5.90;3.92;;;;;;;;;;5049539;28;20111;-60
2021/08/30 03:53:37;;;;;;;7.32;4.15;;;;;;;;;;5048831;28;20107;-60
2021/08/30 03:56:04;;;;;;;8.57;3.70;;;;;;;;;;5054438;28;20028;-60
2021/08/30 03:58:31;;;;;;;6.50;3.63;;;;;;;;;;5047590;28;20561;-59
2021/08/30 04:01:03;;;;;;;6.50;4.03;;;;;;;;;;5051025;28;20122;-59
2021/08/30 04:03:28;;;;;;;5.20;3.83;;;;;;;;;;5047946;28;20029;-59
2021/08/30 04:05:54;;;;;;;4.20;3.25;;;;;;;;;;5049757;28;20047;-60
2021/08/30 04:08:20;;;;;;;5.20;3.30;;;;;;;;;;5053145;28;20405;-59
2021/08/30 04:10:46;;;;;;;5.97;3.35;;;;;;;;;;5050695;28;20037;-59
2021/08/30 04:13:11;;;;;;;4.65;3.00;;;;;;;;;;5049510;28;20471;-59
2021/08/30 04:15:36;;;;;;;4.97;3.22;;;;;;;;;;5050372;28;20036;-59
2021/08/30 04:18:02;;;;;;;6.57;3.78;;;;;;;;;;5048399;28;20021;-59
2021/08/30 04:20:27;;;;;;;7.72;4.50;;;;;;;;;;5050241;28;20450;-59
2021/08/30 04:22:53;;;;;;;6.50;4.88;;;;;;;;;;5048235;28;20392;-59
2021/08/30 04:25:18;;;;;;;7.15;4.70;;;;;;;;;;5051239;28;20013;-59
2021/08/30 04:27:44;;;;;;;7.50;4.35;;;;;;;;;;5062964;28;20029;-59
2021/08/30 04:30:10;;;;;;;7.75;4.65;;;;;;;;;;5051670;28;20043;-59
2021/08/30 04:32:37;;;;;;;6.95;4.15;;;;;;;;;;5051330;28;20377;-59
2021/08/30 04:35:04;;;;;;;5.78;3.72;;;;;;;;;;5048315;28;20538;-59
2021/08/30 04:37:30;;;;;;;6.47;4.40;;;;;;;;;;5048446;28;20040;-59
2021/08/30 04:39:55;;;;;;;6.03;3.78;;;;;;;;;;5063374;28;20404;-59
2021/08/30 04:42:21;;;;;;;10.85;4.80;;;;;;;;;;5048221;28;20025;-60
2021/08/30 04:44:46;;;;;;;10.57;5.28;;;;;;;;;;5049413;28;20389;-59
2021/08/30 04:47:12;;;;;;;9.10;5.30;;;;;;;;;;5054045;28;20124;-59
2021/08/30 04:49:38;;;;;;;9.38;5.65;;;;;;;;;;5047252;28;20033;-59
2021/08/30 04:52:05;;;;;;;8.77;5.53;;;;;;;;;;5052464;28;20479;-59
2021/08/30 04:54:30;;;;;;;10.27;5.43;;;;;;;;;;5047990;28;20036;-59
2021/08/30 04:56:56;;;;;;;9.48;5.55;;;;;;;;;;5052409;28;20029;-59
2021/08/30 04:59:21;;;;;;;9.93;5.93;;;;;;;;;;5047607;28;20468;-60
2021/08/30 05:01:46;;;;;;;10.20;6.18;;;;;;;;;;5047336;28;20029;-59
2021/08/30 05:04:12;;;;;;;10.10;6.30;;;;;;;;;;5049631;28;20552;-58
2021/08/30 05:06:37;;;;;;;10.57;6.25;;;;;;;;;;5048349;28;20040;-59
2021/08/30 05:09:03;;;;;;;10.18;5.35;;;;;;;;;;5049157;28;20124;-59
2021/08/30 05:11:28;;;;;;;10.43;6.13;;;;;;;;;;5046177;28;20029;-60
2021/08/30 05:13:54;;;;;;;10.95;6.13;;;;;;;;;;5050445;28;20036;-60
2021/08/30 05:16:19;;;;;;;11.45;6.43;;;;;;;;;;5050665;28;20120;-59
2021/08/30 05:18:45;;;;;;;15.52;6.78;;;;;;;;;;5046554;28;20033;-59
2021/08/30 05:21:10;;;;;;;13.02;6.20;;;;;;;;;;5047009;28;20029;-59
2021/08/30 05:23:36;;;;;;;10.18;5.93;;;;;;;;;;5046466;28;20017;-59
2021/08/30 05:26:02;;;;;;;11.05;6.10;;;;;;;;;;5049336;28;20029;-59
2021/08/30 05:28:27;;;;;;;8.70;5.82;;;;;;;;;;5046328;28;20209;-59
2021/08/30 05:30:53;;;;;;;10.38;5.68;;;;;;;;;;5047934;28;20028;-59
2021/08/30 05:33:19;;;;;;;8.93;5.65;;;;;;;;;;5046224;28;20399;-59
2021/08/30 05:35:44;;;;;;;9.52;6.07;;;;;;;;;;5049276;28;20048;-59
2021/08/30 05:38:10;;;;;;;9.00;5.40;;;;;;;;;;5047254;28;20380;-59
2021/08/30 05:40:35;;;;;;;9.40;5.70;;;;;;;;;;5048115;28;20476;-59
2021/08/30 05:43:01;;;;;;;7.78;4.80;;;;;;;;;;5047678;28;20518;-59
2021/08/30 05:45:27;;;;;;;6.60;4.10;;;;;;;;;;5046032;28;20082;-59
2021/08/30 05:47:53;;;;;;;7.60;4.32;;;;;;;;;;5049403;28;20044;-59
2021/08/30 05:50:18;;;;;;;8.52;4.22;;;;;;;;;;5050487;28;20181;-59
2021/08/30 05:52:44;;;;;;;7.85;4.55;;;;;;;;;;5047097;28;20033;-59
2021/08/30 05:55:10;;;;;;;9.00;4.82;;;;;;;;;;5048616;28;20036;-59
2021/08/30 05:57:35;;;;;;;7.05;4.53;;;;;;;;;;5046295;28;20020;-59
2021/08/30 06:00:01;;;;;;;7.50;4.43;;;;;;;;;;5047957;28;20021;-59
2021/08/30 06:02:26;;;;;;;8.75;5.00;;;;;;;;;;5046100;28;20036;-59
2021/08/30 06:04:51;;;;;;;7.40;4.75;;;;;;;;;;5047932;28;20187;-59
2021/08/30 06:07:17;;;;;;;8.63;5.03;;;;;;;;;;5046821;28;20032;-59
2021/08/30 06:09:42;;;;;;;11.38;5.57;;;;;;;;;;5049094;28;20033;-59
2021/08/30 06:12:08;;;;;;;12.25;5.80;;;;;;;;;;5051397;28;20407;-59
2021/08/30 06:14:34;;;;;;;12.48;7.07;;;;;;;;;;5048145;28;20414;-59
2021/08/30 06:16:59;;;;;;;13.50;6.95;;;;;;;;;;5045061;28;20483;-59
2021/08/30 06:19:25;;;;;;;14.68;7.40;;;;;;;;;;5046289;28;20510;-59
2021/08/30 06:21:50;;;;;;;12.55;7.40;;;;;;;;;;5049436;28;20033;-59
2021/08/30 06:24:15;;;;;;;16.27;8.60;;;;;;;;;;5046996;28;20531;-59
2021/08/30 06:26:41;;;;;;;15.38;8.65;;;;;;;;;;5047240;28;20047;-58
2021/08/30 06:29:06;;;;;;;18.23;9.38;;;;;;;;;;5046660;28;20047;-59
2021/08/30 06:31:32;;;;;;;18.33;9.40;;;;;;;;;;5047009;28;20017;-59
2021/08/30 06:33:57;;;;;;;17.17;9.05;;;;;;;;;;5047986;28;20017;-59
2021/08/30 06:36:24;;;;;;;20.20;9.90;;;;;;;;;;5054103;28;20569;-59
2021/08/30 06:38:49;;;;;;;17.25;8.98;;;;;;;;;;5050175;28;20507;-59
2021/08/30 06:41:15;;;;;;;18.58;9.52;;;;;;;;;;5047881;28;20064;-60
2021/08/30 06:43:40;;;;;;;19.50;9.95;;;;;;;;;;5050902;28;20373;-59
2021/08/30 06:46:06;;;;;;;20.40;9.70;;;;;;;;;;5050205;28;20372;-59
2021/08/30 06:48:31;;;;;;;20.13;9.65;;;;;;;;;;5049933;28;20448;-59
2021/08/30 06:50:57;;;;;;;19.95;9.55;;;;;;;;;;5051485;28;20029;-59
2021/08/30 06:53:22;;;;;;;20.98;9.75;;;;;;;;;;5051242;28;20402;-59
2021/08/30 06:55:48;;;;;;;18.52;10.30;;;;;;;;;;5050815;28;20021;-59
2021/08/30 06:58:13;;;;;;;19.92;9.82;;;;;;;;;;5052924;28;20402;-58
2021/08/30 07:00:39;;;;;;;20.30;10.00;;;;;;;;;;5049702;28;20020;-58
2021/08/30 07:03:05;;;;;;;17.75;9.18;;;;;;;;;;5049170;28;20373;-59
2021/08/30 07:05:30;;;;;;;19.88;10.13;;;;;;;;;;5050616;28;20429;-58
2021/08/30 07:07:56;;;;;;;20.67;10.55;;;;;;;;;;5050515;28;20032;-59
2021/08/30 07:10:21;;;;;;;20.10;10.18;;;;;;;;;;5054492;28;20025;-59
2021/08/30 07:12:47;;;;;;;20.80;10.07;;;;;;;;;;5064669;28;20021;-59
2021/08/30 07:15:12;;;;;;;24.13;11.23;;;;;;;;;;5051148;28;20626;-59
2021/08/30 07:17:38;;;;;;;23.55;10.85;;;;;;;;;;5048930;28;20028;-59
2021/08/30 07:20:04;;;;;;;20.27;10.77;;;;;;;;;;5048740;28;20037;-59
2021/08/30 07:22:29;;;;;;;20.42;10.30;;;;;;;;;;5049189;28;20487;-59
2021/08/30 07:24:55;;;;;;;19.80;11.00;;;;;;;;;;5064713;28;20044;-58
2021/08/30 07:27:20;;;;;;;18.95;10.20;;;;;;;;;;5050325;28;20105;-58
2021/08/30 07:29:46;;;;;;;23.15;10.75;;;;;;;;;;5052826;28;20117;-58
2021/08/30 07:32:11;;;;;;;20.80;10.65;;;;;;;;;;5049532;28;20029;-58
2021/08/30 07:34:36;;;;;;;18.17;10.30;;;;;;;;;;5054052;28;20032;-59
2021/08/30 07:37:03;;;;;;;21.40;10.73;;;;;;;;;;5051224;28;20446;-59
2021/08/30 07:39:29;;;;;;;20.83;10.38;;;;;;;;;;5065351;28;20052;-59
2021/08/30 07:41:54;;;;;;;21.35;10.50;;;;;;;;;;5048714;28;20024;-59
2021/08/30 07:44:21;;;;;;;24.15;10.98;;;;;;;;;;5049667;28;20139;-60
2021/08/30 07:46:47;;;;;;;22.85;11.02;;;;;;;;;;5051358;28;20025;-59
2021/08/30 07:49:12;;;;;;;22.92;12.10;;;;;;;;;;5048994;28;20035;-59
2021/08/30 07:51:41;;;;;;;21.63;11.45;;;;;;;;;;5051069;28;20161;-60
2021/08/30 07:54:07;;;;;;;21.05;10.90;;;;;;;;;;5048482;28;20033;-59
2021/08/30 07:56:37;;;;;;;22.50;11.05;;;;;;;;;;5048771;28;20368;-59
2021/08/30 07:59:03;;;;;;;21.98;11.90;;;;;;;;;;5049469;28;20052;-60
2021/08/30 08:01:28;;;;;;;23.23;11.93;;;;;;;;;;5048151;28;20036;-60
2021/08/30 08:03:54;;;;;;;19.80;10.75;;;;;;;;;;5049382;28;20024;-59
2021/08/30 08:06:20;;;;;;;23.63;12.52;;;;;;;;;;5047840;28;20051;-59
2021/08/30 08:08:46;;;;;;;22.25;11.65;;;;;;;;;;5049853;28;20370;-59
2021/08/30 08:11:12;;;;;;;21.67;11.27;;;;;;;;;;5052301;28;20115;-59
2021/08/30 08:13:38;;;;;;;24.30;11.68;;;;;;;;;;5049584;28;20100;-59
2021/08/30 08:16:03;;;;;;;21.50;12.07;;;;;;;;;;5049269;28;20555;-59
2021/08/30 08:18:30;;;;;;;23.15;12.10;;;;;;;;;;5048031;28;20029;-59
2021/08/30 08:20:56;;;;;;;22.20;12.13;;;;;;;;;;5049963;28;20043;-58
2021/08/30 08:23:22;;;;;;;22.48;11.98;;;;;;;;;;5049063;28;20020;-60
2021/08/30 08:25:47;;;;;;;22.65;12.40;;;;;;;;;;5050012;28;20483;-60
2021/08/30 08:28:13;;;;;;;21.58;12.10;;;;;;;;;;5050668;28;20028;-62
2021/08/30 08:30:38;;;;;;;26.33;12.32;;;;;;;;;;5047937;28;20033;-60
2021/08/30 08:33:04;;;;;;;24.60;12.40;;;;;;;;;;5047537;28;20094;-59
2021/08/30 08:35:30;;;;;;;24.48;12.85;;;;;;;;;;5051741;28;20206;-59
2021/08/30 08:37:55;;;;;;;28.05;12.93;;;;;;;;;;5050216;28;20045;-58
2021/08/30 08:40:21;;;;;;;25.33;12.88;;;;;;;;;;5048526;28;20108;-58
2021/08/30 08:42:46;;;;;;;21.42;11.73;;;;;;;;;;5049221;28;20459;-58
2021/08/30 08:45:14;;;;;;;23.95;12.73;;;;;;;;;;5048135;28;20652;-59
2021/08/30 08:47:41;;;;;;;25.15;12.27;;;;;;;;;;5049441;28;20036;-58
2021/08/30 08:50:09;;;;;;;24.08;12.63;;;;;;;;;;5049036;28;20314;-58
2021/08/30 08:52:36;;;;;;;22.48;12.90;;;;;;;;;;5047911;28;20212;-59
2021/08/30 08:55:03;;;;;;;21.42;11.30;;;;;;;;;;5047949;28;20021;-59
2021/08/30 08:57:30;;;;;;;18.98;10.70;;;;;;;;;;5047330;28;20515;-59
2021/08/30 09:00:14;;;;;;;20.02;11.05;;;;;;;;;;5048232;28;20037;-59
2021/08/30 09:02:40;;;;;;;20.25;11.18;;;;;;;;;;5046943;28;20036;-59
2021/08/30 09:05:18;;;;;;;17.27;10.98;;;;;;;;;;5047675;28;20025;-59
2021/08/30 09:07:44;;;;;;;17.35;10.98;;;;;;;;;;5046636;28;20024;-59
2021/08/30 09:10:16;;;;;;;17.50;10.73;;;;;;;;;;5047832;28;20518;-59
2021/08/30 09:12:43;;;;;;;19.52;10.90;;;;;;;;;;5046775;28;20035;-59
2021/08/30 09:15:13;;;;;;;17.15;10.05;;;;;;;;;;5051640;28;20021;-59
2021/08/30 09:17:55;;;;;;;19.35;11.18;;;;;;;;;;5046603;28;20033;-59
2021/08/30 09:20:23;;;;;;;17.45;10.55;;;;;;;;;;5050026;28;20527;-60
2021/08/30 09:22:50;;;;;;;19.50;10.20;;;;;;;;;;5047487;28;20025;-59
2021/08/30 09:25:17;;;;;;;15.65;9.75;;;;;;;;;;5047414;28;20031;-60
2021/08/30 09:27:48;;;;;;;18.02;9.23;;;;;;;;;;5049528;28;20028;-59
2021/08/30 09:30:15;;;;;;;16.20;9.02;;;;;;;;;;5048533;28;20506;-59
2021/08/30 09:32:47;;;;;;;16.10;9.13;;;;;;;;;;5065678;28;20028;-59
2021/08/30 09:35:13;;;;;;;17.73;9.20;;;;;;;;;;5045918;28;20112;-59
2021/08/30 09:37:41;;;;;;;17.35;8.38;;;;;;;;;;5048756;28;20107;-60
2021/08/30 09:40:13;;;;;;;14.13;7.90;;;;;;;;;;5030973;28;20444;-59
2021/08/30 09:43:04;;;;;;;13.55;8.07;;;;;;;;;;5046603;28;20108;-60
2021/08/30 09:45:30;;;;;;;14.05;7.78;;;;;;;;;;5043856;28;20056;-59
2021/08/30 09:47:58;;;;;;;13.63;7.28;;;;;;;;;;5046549;28;20039;-59
2021/08/30 09:50:28;;;;;;;13.90;8.20;;;;;;;;;;5049081;28;20040;-59
2021/08/30 09:52:55;;;;;;;12.60;7.50;;;;;;;;;;5044812;28;20024;-59
2021/08/30 09:55:21;;;;;;;13.13;7.32;;;;;;;;;;5047454;28;20021;-59
2021/08/30 09:57:49;;;;;;;18.60;8.65;;;;;;;;;;5047064;28;20033;-59
2021/08/30 10:00:17;;;;;;;13.88;7.95;;;;;;;;;;5045769;28;20059;-58
2021/08/30 10:02:46;;;;;;;14.63;8.48;;;;;;;;;;5046434;28;20087;-59
2021/08/30 10:05:13;;;;;;;14.55;7.75;;;;;;;;;;5047710;28;20021;-58
2021/08/30 10:07:39;;;;;;;15.23;9.27;;;;;;;;;;5047217;28;20051;-58
2021/08/30 10:10:06;;;;;;;16.92;8.75;;;;;;;;;;5048600;28;20174;-58
2021/08/30 10:12:31;;;;;;;14.63;8.05;;;;;;;;;;5048902;28;20053;-59
2021/08/30 10:14:57;;;;;;;16.52;9.25;;;;;;;;;;5063375;28;20071;-58
2021/08/30 10:17:23;;;;;;;18.63;9.77;;;;;;;;;;5048252;28;20021;-59
2021/08/30 10:20:00;;;;;;;17.20;9.57;;;;;;;;;;5049106;28;20480;-59
2021/08/30 10:22:26;;;;;;;17.08;10.07;;;;;;;;;;5046067;28;20250;-59
2021/08/30 10:24:52;;;;;;;18.10;10.50;;;;;;;;;;5047790;28;20485;-59
2021/08/30 10:27:34;;;;;;;16.15;10.00;;;;;;;;;;5046093;28;20136;-59
2021/08/30 10:30:11;;;;;;;19.85;10.65;;;;;;;;;;5046129;28;20079;-59
2021/08/30 10:32:45;;;;;;;21.17;10.60;;;;;;;;;;5049043;28;20033;-59
2021/08/30 10:35:17;;;;;;;17.70;10.48;;;;;;;;;;5047320;28;20075;-59
2021/08/30 10:37:55;;;;;;;18.52;9.65;;;;;;;;;;5051328;28;20052;-60
2021/08/30 10:40:21;;;;;;;18.33;10.30;;;;;;;;;;5047753;28;20053;-61
2021/08/30 10:43:08;;;;;;;20.02;10.77;;;;;;;;;;5046682;28;20119;-58
2021/08/30 10:45:39;;;;;;;18.98;10.05;;;;;;;;;;5045011;28;20104;-59
2021/08/30 10:48:12;;;;;;;21.58;10.90;;;;;;;;;;5046383;28;20498;-59
2021/08/30 10:50:47;;;;;;;22.65;11.32;;;;;;;;;;5047889;28;20044;-59
2021/08/30 10:53:18;;;;;;;20.40;10.32;;;;;;;;;;5045870;28;20114;-60
2021/08/30 10:55:49;;;;;;;20.05;10.98;;;;;;;;;;5047266;28;20032;-59
2021/08/30 10:58:33;;;;;;;22.88;11.63;;;;;;;;;;5046881;28;20444;-59
2021/08/30 11:01:10;;;;;;;20.58;10.38;;;;;;;;;;5041253;28;20032;-59
2021/08/30 11:03:35;;;;;;;26.20;12.10;;;;;;;;;;5046716;28;20035;-59
2021/08/30 11:06:01;;;;;;;23.70;11.45;;;;;;;;;;5045605;28;20224;-58
2021/08/30 11:08:27;;;;;;;22.98;12.85;;;;;;;;;;5047589;28;20029;-58
2021/08/30 11:10:52;;;;;;;23.10;11.40;;;;;;;;;;5046518;28;20119;-60
2021/08/30 11:13:25;;;;;;;21.40;11.95;;;;;;;;;;5045906;28;20029;-61
2021/08/30 11:15:51;;;;;;;25.80;12.38;;;;;;;;;;5047854;28;20021;-60
2021/08/30 11:18:16;;;;;;;26.75;13.85;;;;;;;;;;5047533;28;20033;-59
2021/08/30 11:20:48;;;;;;;24.17;12.63;;;;;;;;;;5050787;28;20283;-59
2021/08/30 11:23:14;;;;;;;21.88;12.02;;;;;;;;;;5065040;28;20504;-59
2021/08/30 11:25:39;;;;;;;20.85;11.52;;;;;;;;;;5050062;28;20021;-60
2021/08/30 11:28:16;;;;;;;16.58;10.38;;;;;;;;;;5049161;28;20407;-59
2021/08/30 11:30:42;;;;;;;17.80;10.27;;;;;;;;;;5051851;28;20025;-59
2021/08/30 11:33:07;;;;;;;18.85;10.80;;;;;;;;;;5045264;28;20463;-60
2021/08/30 11:35:33;;;;;;;20.73;10.95;;;;;;;;;;5049442;28;20400;-59
2021/08/30 11:38:09;;;;;;;16.90;10.43;;;;;;;;;;5052984;28;20107;-58
2021/08/30 11:40:35;;;;;;;28.00;10.73;;;;;;;;;;5049037;28;20303;-59
2021/08/30 11:43:00;;;;;;;26.05;12.43;;;;;;;;;;5049687;28;20028;-59
2021/08/30 11:45:28;;;;;;;18.48;10.60;;;;;;;;;;5051022;28;20041;-59
2021/08/30 11:47:53;;;;;;;20.90;10.77;;;;;;;;;;5049249;28;20029;-59
2021/08/30 11:50:20;;;;;;;19.80;10.52;;;;;;;;;;5050121;28;20025;-60
2021/08/30 11:52:46;;;;;;;18.90;10.40;;;;;;;;;;5048746;28;20508;-60
2021/08/30 11:55:14;;;;;;;18.42;10.73;;;;;;;;;;5050558;28;20035;-60
2021/08/30 11:57:47;;;;;;;17.73;10.15;;;;;;;;;;5048617;28;20570;-60
2021/08/30 12:00:23;;;;;;;20.77;10.43;;;;;;;;;;5049104;28;20112;-59
2021/08/30 12:03:12;;;;;;;20.45;10.13;;;;;;;;;;5049724;28;20024;-60
2021/08/30 12:05:38;;;;;;;;;;;;;;;;;;5050041;28;20411;-59
2021/08/30 12:08:03;;;;;;;20.92;10.50;;;;;;;;;;5048428;28;19917;-59
2021/08/30 12:10:30;;;;;;;21.05;11.43;;;;;;;;;;5048923;28;20033;-59
2021/08/30 12:15:33;;;;;;;23.35;11.18;;;;;;;;;;5051276;28;20020;-59
2021/08/30 12:18:01;;;;;;;19.02;11.82;;;;;;;;;;5050972;28;20029;-59
2021/08/30 12:20:31;;;;;;;19.30;11.18;;;;;;;;;;5050734;28;20155;-59
2021/08/30 12:22:59;;;;;;;19.90;11.15;;;;;;;;;;5047382;28;20062;-59
2021/08/30 12:25:29;;;;;;;21.42;12.10;;;;;;;;;;5049064;28;20499;-60
2021/08/30 12:27:55;;;;;;;;;;;;;;;;;;5050283;28;20070;-59
2021/08/30 12:30:23;;;;;;;23.90;11.40;;;;;;;;;;5048552;28;19913;-60
2021/08/30 12:33:10;;;;;;;21.87;11.77;;;;;;;;;;5048392;28;20457;-59
2021/08/30 12:35:42;;;;;;;24.90;11.60;;;;;;;;;;5051316;28;20291;-59
2021/08/30 12:38:13;;;;;;;22.13;12.40;;;;;;;;;;5046734;28;20562;-59
2021/08/30 12:40:47;;;;;;;18.67;11.23;;;;;;;;;;5049351;28;20433;-59
2021/08/30 12:43:15;;;;;;;22.30;12.13;;;;;;;;;;5046707;28;20483;-59
2021/08/30 12:45:40;;;;;;;22.83;12.15;;;;;;;;;;5049210;28;20035;-60
2021/08/30 12:48:06;;;;;;;21.23;11.02;;;;;;;;;;5047269;28;20029;-59
2021/08/30 12:50:32;;;;;;;20.27;11.02;;;;;;;;;;5048008;28;20040;-58
2021/08/30 12:52:58;;;;;;;22.02;11.68;;;;;;;;;;5051129;28;20032;-59
2021/08/30 12:55:23;;;;;;;21.42;11.57;;;;;;;;;;5049804;28;20449;-59
2021/08/30 12:57:49;;;;;;;25.45;12.45;;;;;;;;;;5047105;28;20028;-59
2021/08/30 13:00:16;;;;;;;19.90;11.35;;;;;;;;;;5047954;28;20031;-59
2021/08/30 13:02:43;;;;;;;25.52;11.68;;;;;;;;;;5046133;28;20510;-59
2021/08/30 13:05:11;;;;;;;22.98;12.43;;;;;;;;;;5051162;28;20108;-59
2021/08/30 13:07:37;;;;;;;20.27;12.45;;;;;;;;;;5049054;28;20571;-59
2021/08/30 13:10:04;;;;;;;24.70;12.57;;;;;;;;;;5047923;28;20107;-59
2021/08/30 13:12:30;;;;;;;20.10;11.70;;;;;;;;;;5051736;28;20085;-60
2021/08/30 13:14:55;;;;;;;26.23;13.07;;;;;;;;;;5049464;28;20036;-59
2021/08/30 13:17:20;;;;;;;24.08;12.98;;;;;;;;;;5048232;28;20424;-60
2021/08/30 13:19:46;;;;;;;24.27;12.73;;;;;;;;;;5048916;28;20028;-60
2021/08/30 13:22:11;;;;;;;24.67;12.70;;;;;;;;;;5047184;28;20028;-59
2021/08/30 13:24:39;;;;;;;26.30;13.70;;;;;;;;;;5051013;28;20425;-60
2021/08/30 13:27:04;;;;;;;21.52;12.88;;;;;;;;;;5048743;28;20033;-60
2021/08/30 13:29:30;;;;;;;22.92;12.45;;;;;;;;;;5047932;28;20086;-59
2021/08/30 13:31:55;;;;;;;23.52;12.00;;;;;;;;;;5047565;28;20042;-59
2021/08/30 13:34:21;;;;;;;21.63;12.32;;;;;;;;;;5050107;28;20036;-60
2021/08/30 13:36:46;;;;;;;20.00;12.05;;;;;;;;;;5047746;28;20521;-59
2021/08/30 13:39:12;;;;;;;21.25;11.15;;;;;;;;;;5048410;28;20029;-59
2021/08/30 13:41:38;;;;;;;18.77;10.80;;;;;;;;;;5049351;28;20113;-59
2021/08/30 13:44:04;;;;;;;17.88;10.88;;;;;;;;;;5048209;28;20471;-58
2021/08/30 13:46:29;;;;;;;17.50;10.60;;;;;;;;;;5047648;28;20040;-59
2021/08/30 13:48:55;;;;;;;18.73;10.55;;;;;;;;;;5060791;28;20069;-59
2021/08/30 13:51:20;;;;;;;16.98;10.52;;;;;;;;;;5047493;28;20083;-60
2021/08/30 13:53:45;;;;;;;15.68;9.80;;;;;;;;;;5048696;28;20064;-60
2021/08/30 13:56:11;;;;;;;16.08;9.50;;;;;;;;;;5046457;28;20488;-59
2021/08/30 13:58:36;;;;;;;15.40;9.45;;;;;;;;;;5046235;28;20049;-59
2021/08/30 14:01:02;;;;;;;16.98;9.90;;;;;;;;;;5047742;28;20036;-59
2021/08/30 14:03:27;;;;;;;15.60;9.32;;;;;;;;;;5046299;28;20025;-60
2021/08/30 14:05:52;;;;;;;15.25;9.35;;;;;;;;;;5049242;28;20082;-60
2021/08/30 14:08:18;;;;;;;19.10;10.82;;;;;;;;;;5046918;28;20090;-60
2021/08/30 14:10:43;;;;;;;19.02;10.63;;;;;;;;;;5050636;28;20178;-60
2021/08/30 14:13:09;;;;;;;17.55;10.55;;;;;;;;;;5049563;28;20077;-60
2021/08/30 14:15:35;;;;;;;20.90;11.75;;;;;;;;;;5049834;28;20032;-60
2021/08/30 14:18:02;;;;;;;21.13;10.68;;;;;;;;;;5045341;28;20582;-60
2021/08/30 14:20:28;;;;;;;18.85;11.45;;;;;;;;;;5046828;28;20025;-60
2021/08/30 14:22:54;;;;;;;18.00;10.90;;;;;;;;;;5046067;28;20044;-60
2021/08/30 14:25:19;;;;;;;20.88;11.82;;;;;;;;;;5051311;28;20390;-60
2021/08/30 14:27:45;;;;;;;17.63;10.60;;;;;;;;;;5046109;28;20391;-60
2021/08/30 14:30:12;;;;;;;19.83;10.25;;;;;;;;;;5045868;28;20725;-59
2021/08/30 14:32:38;;;;;;;13.68;9.00;;;;;;;;;;5046258;28;20029;-60
2021/08/30 14:35:03;;;;;;;16.50;8.45;;;;;;;;;;5047855;28;20031;-60
2021/08/30 14:37:29;;;;;;;14.05;8.05;;;;;;;;;;5048568;28;20032;-60
2021/08/30 14:39:55;;;;;;;16.63;8.30;;;;;;;;;;5051490;28;20128;-60